Time;durP1;ratioP1;P1;durP2;ratioP2;P2;SDS_P1;SDS_P2;PMS_P1;PMS_P2;Temp;Humidity;BMP_temperature;BMP_pressure;BME280_temperature;BME280_humidity;BME280_pressure;Samples;Min_cycle;Max_cycle;Signal;HPM_P1;HPM_P2
2022/01/31 00:01:23;;;;;;;1999.90;999.90;;;5.50;99.90;;;;;;4976300;28;20529;-71
2022/01/31 00:03:49;;;;;;;1999.90;999.90;;;5.40;99.90;;;;;;4993633;28;20236;-71
2022/01/31 00:06:15;;;;;;;1999.90;999.90;;;5.40;99.90;;;;;;4993462;28;20236;-71
2022/01/31 00:08:42;;;;;;;1999.90;999.90;;;5.50;99.90;;;;;;4976280;28;20174;-71
2022/01/31 00:11:07;;;;;;;1999.90;999.90;;;5.50;99.90;;;;;;4993418;28;20200;-70
2022/01/31 00:13:39;;;;;;;1999.90;999.90;;;5.60;99.90;;;;;;4993464;28;20427;-71
2022/01/31 00:16:07;;;;;;;1999.90;999.90;;;5.60;99.90;;;;;;4993275;28;20174;-70
2022/01/31 00:18:33;;;;;;;1999.90;999.90;;;5.70;99.90;;;;;;4993513;28;20475;-70
2022/01/31 00:20:58;;;;;;;1999.90;999.90;;;5.70;99.90;;;;;;4992769;28;20409;-71
2022/01/31 00:23:24;;;;;;;1999.90;999.90;;;5.70;99.90;;;;;;4993348;28;20177;-71
2022/01/31 00:25:49;;;;;;;1999.90;999.90;;;5.70;99.90;;;;;;4993020;28;20165;-71
2022/01/31 00:28:15;;;;;;;1999.90;999.90;;;5.70;99.90;;;;;;4993318;28;20170;-71
2022/01/31 00:30:41;;;;;;;1999.90;999.90;;;5.70;99.90;;;;;;4993222;28;20185;-71
2022/01/31 00:33:07;;;;;;;1999.90;999.90;;;5.80;99.90;;;;;;5071757;23;20671;-74
2022/01/31 00:35:32;;;;;;;1999.90;999.90;;;5.80;99.90;;;;;;5072298;28;20163;-73
2022/01/31 00:37:58;;;;;;;1999.90;999.90;;;5.70;99.90;;;;;;5072392;28;20393;-72
2022/01/31 00:40:24;;;;;;;1999.90;999.90;;;5.80;99.90;;;;;;5072290;28;20655;-74
2022/01/31 00:42:50;;;;;;;1999.90;999.90;;;5.80;99.90;;;;;;5072191;28;20179;-73
2022/01/31 00:47:45;;;;;;;1999.90;999.90;;;5.80;99.90;;;;;;5072186;28;20166;-73
2022/01/31 00:50:13;;;;;;;1999.90;999.90;;;5.80;99.90;;;;;;5072207;28;20162;-73
2022/01/31 00:52:41;;;;;;;1999.90;999.90;;;5.80;99.90;;;;;;5071984;28;20453;-73
2022/01/31 00:55:09;;;;;;;1999.90;999.90;;;5.90;99.90;;;;;;5071697;28;20420;-73
2022/01/31 00:57:35;;;;;;;1999.90;999.90;;;5.80;99.90;;;;;;5072039;28;20179;-72
2022/01/31 01:00:01;;;;;;;1999.90;999.90;;;5.90;99.90;;;;;;5072172;28;20504;-74
2022/01/31 01:02:27;;;;;;;1999.90;999.90;;;5.90;99.90;;;;;;5071918;28;20195;-73
2022/01/31 01:04:53;;;;;;;1999.90;999.90;;;5.90;99.90;;;;;;5071702;28;20504;-73
2022/01/31 01:07:19;;;;;;;1999.90;999.90;;;5.90;99.90;;;;;;5072019;28;20177;-72
2022/01/31 01:09:45;;;;;;;1999.90;999.90;;;5.90;99.90;;;;;;5071918;28;20405;-73
2022/01/31 01:12:13;;;;;;;1999.90;999.90;;;6.00;99.90;;;;;;5071746;28;20456;-73
2022/01/31 01:14:40;;;;;;;1999.90;999.90;;;6.00;99.90;;;;;;5071643;28;20496;-72
2022/01/31 01:17:05;;;;;;;1999.90;999.90;;;5.90;99.90;;;;;;5071883;28;20529;-73
2022/01/31 01:19:31;;;;;;;1999.90;999.90;;;6.00;99.90;;;;;;5071865;28;20406;-72
2022/01/31 01:21:57;;;;;;;1999.90;999.90;;;6.00;99.90;;;;;;5071704;28;20573;-73
2022/01/31 01:24:23;;;;;;;1999.90;999.90;;;6.00;99.90;;;;;;5071601;28;20414;-74
2022/01/31 01:26:49;;;;;;;1999.90;999.90;;;6.00;99.90;;;;;;5071727;28;20175;-74
2022/01/31 01:29:15;;;;;;;1999.90;999.90;;;6.00;99.90;;;;;;5071766;28;20201;-73
2022/01/31 01:31:44;;;;;;;1999.90;999.90;;;6.00;99.90;;;;;;5071697;28;20532;-73
2022/01/31 01:34:10;;;;;;;1999.90;999.90;;;5.90;99.90;;;;;;5075037;28;20832;-74
2022/01/31 01:36:38;;;;;;;1999.90;999.90;;;5.90;99.90;;;;;;5075852;28;20401;-74
2022/01/31 01:39:04;;;;;;;1999.90;999.90;;;6.00;99.90;;;;;;5075720;28;20159;-75
2022/01/31 01:41:29;;;;;;;1999.90;999.90;;;6.00;99.90;;;;;;5075700;28;20914;-73
2022/01/31 01:43:55;;;;;;;1999.90;999.90;;;6.00;99.90;;;;;;5077222;28;20195;-73
2022/01/31 01:46:20;;;;;;;1999.90;999.90;;;6.00;99.90;;;;;;5060720;28;20179;-73
2022/01/31 01:48:46;;;;;;;1999.90;999.90;;;5.90;99.90;;;;;;5061161;28;20186;-73
2022/01/31 01:51:12;;;;;;;1999.90;999.90;;;5.90;99.90;;;;;;5079007;28;20171;-72
2022/01/31 01:53:38;;;;;;;1999.90;999.90;;;5.90;99.90;;;;;;5078472;28;20556;-72
2022/01/31 01:56:04;;;;;;;1999.90;999.90;;;5.90;99.90;;;;;;5060503;28;20405;-72
2022/01/31 01:58:38;;;;;;;1999.90;999.90;;;5.90;99.90;;;;;;5079201;28;20163;-72
2022/01/31 02:01:04;;;;;;;1999.90;999.90;;;5.90;99.90;;;;;;5078993;28;20424;-72
2022/01/31 02:03:31;;;;;;;1999.90;999.90;;;5.90;99.90;;;;;;5060569;28;20432;-72
2022/01/31 02:05:58;;;;;;;1999.90;999.90;;;6.00;99.90;;;;;;5060463;28;20471;-72
2022/01/31 02:08:25;;;;;;;1999.90;999.90;;;6.00;99.90;;;;;;5078450;28;20462;-72
2022/01/31 02:10:51;;;;;;;1999.90;999.90;;;6.00;99.90;;;;;;5078366;28;20397;-72
2022/01/31 02:13:17;;;;;;;1999.90;999.90;;;6.00;99.90;;;;;;5078384;28;20453;-72
2022/01/31 02:15:51;;;;;;;1999.90;999.90;;;6.00;99.90;;;;;;5078176;28;20468;-72
2022/01/31 02:18:20;;;;;;;1999.90;999.90;;;6.00;99.90;;;;;;5078064;28;20407;-72
2022/01/31 02:20:46;;;;;;;1999.90;999.90;;;6.00;99.90;;;;;;5077970;28;20466;-72
2022/01/31 02:23:13;;;;;;;1999.90;999.90;;;6.00;99.90;;;;;;5078406;28;20492;-73
2022/01/31 02:26:02;;;;;;;1999.90;999.90;;;5.90;99.90;;;;;;5078406;28;20167;-73
2022/01/31 02:28:29;;;;;;;1999.90;999.90;;;6.00;99.90;;;;;;5078697;28;20420;-73
2022/01/31 02:30:56;;;;;;;1999.90;999.90;;;5.80;99.90;;;;;;5078061;28;21132;-73
2022/01/31 02:33:22;;;;;;;1999.90;999.90;;;5.80;99.90;;;;;;5077929;28;20980;-73
2022/01/31 02:36:00;;;;;;;1999.90;999.90;;;5.70;99.90;;;;;;5076621;28;20396;-73
2022/01/31 02:38:26;;;;;;;1999.90;999.90;;;5.60;99.90;;;;;;5059251;28;20405;-74
2022/01/31 02:40:52;;;;;;;1999.90;999.90;;;5.40;99.90;;;;;;5076353;28;20781;-73
2022/01/31 02:43:31;;;;;;;1999.90;999.90;;;5.30;99.90;;;;;;5074763;28;20417;-72
2022/01/31 02:45:57;;;;;;;1999.90;999.90;;;5.10;99.90;;;;;;5074678;28;20433;-73
2022/01/31 02:48:25;;;;;;;1999.90;999.90;;;5.00;99.90;;;;;;5077133;28;20942;-73
2022/01/31 02:50:52;;;;;;;1999.90;999.90;;;4.90;99.90;;;;;;5076222;28;20492;-73
2022/01/31 02:53:31;;;;;;;1999.90;999.90;;;4.80;99.90;;;;;;5075915;28;20195;-73
2022/01/31 02:55:59;;;;;;;1999.90;999.90;;;4.70;99.90;;;;;;5074303;28;20412;-72
2022/01/31 02:58:27;;;;;;;1999.90;999.90;;;4.60;99.90;;;;;;5074436;28;20763;-72
2022/01/31 03:00:54;;;;;;;1999.90;999.90;;;4.60;99.90;;;;;;5074389;28;20625;-71
2022/01/31 03:03:20;;;;;;;1999.90;999.90;;;4.60;99.90;;;;;;5074084;28;20428;-72
2022/01/31 03:05:46;;;;;;;1999.90;999.90;;;4.50;99.90;;;;;;5073806;28;20546;-73
2022/01/31 03:08:11;;;;;;;1999.90;999.90;;;4.50;99.90;;;;;;5074026;28;20177;-71
2022/01/31 03:10:37;;;;;;;1999.90;999.90;;;4.40;99.90;;;;;;5056094;28;20171;-70
2022/01/31 03:13:03;;;;;;;1999.90;999.90;;;4.40;99.90;;;;;;5055961;28;20290;-71
2022/01/31 03:15:29;;;;;;;1999.90;999.90;;;4.30;99.90;;;;;;5073749;28;20171;-71
2022/01/31 03:17:54;;;;;;;1999.90;999.90;;;4.30;99.90;;;;;;5073935;28;20492;-71
2022/01/31 03:20:22;;;;;;;1999.90;999.90;;;4.20;99.90;;;;;;5073896;28;20170;-72
2022/01/31 03:22:48;;;;;;;1999.90;999.90;;;4.20;99.90;;;;;;5073597;28;20210;-70
2022/01/31 03:25:14;;;;;;;1999.90;999.90;;;4.20;99.90;;;;;;5073505;28;20405;-71
2022/01/31 03:27:41;;;;;;;1999.90;999.90;;;4.10;99.90;;;;;;5073703;28;20429;-74
2022/01/31 03:30:09;;;;;;;1999.90;999.90;;;4.10;99.90;;;;;;5073782;28;20236;-73
2022/01/31 03:32:35;;;;;;;1999.90;999.90;;;4.10;99.90;;;;;;5073412;28;20252;-73
2022/01/31 03:35:01;;;;;;;1999.90;999.90;;;4.10;99.90;;;;;;5055434;28;20273;-72
2022/01/31 03:37:28;;;;;;;1999.90;999.90;;;4.10;99.90;;;;;;5073440;28;20205;-72
2022/01/31 03:39:54;;;;;;;1999.90;999.90;;;4.20;99.90;;;;;;5073508;28;20167;-71
2022/01/31 03:42:19;;;;;;;1999.90;999.90;;;4.20;99.90;;;;;;5073344;28;20675;-71
2022/01/31 03:44:46;;;;;;;1999.90;999.90;;;4.20;99.90;;;;;;5073035;28;20412;-71
2022/01/31 03:47:12;;;;;;;1999.90;999.90;;;4.20;99.90;;;;;;5073377;28;20245;-71
2022/01/31 03:49:38;;;;;;;1999.90;999.90;;;4.20;99.90;;;;;;5073245;28;20195;-73
2022/01/31 03:52:04;;;;;;;1999.90;999.90;;;4.30;99.90;;;;;;5072926;28;20455;-72
2022/01/31 03:54:30;;;;;;;1999.90;999.90;;;4.30;99.90;;;;;;5072922;28;20529;-72
2022/01/31 03:56:55;;;;;;;1999.90;999.90;;;4.30;99.90;;;;;;5073114;28;20402;-75
2022/01/31 03:59:21;;;;;;;1999.90;999.90;;;4.30;99.90;;;;;;5073121;28;20198;-75
2022/01/31 04:01:46;;;;;;;1999.90;999.90;;;4.40;99.90;;;;;;5073197;28;20823;-75
2022/01/31 04:04:13;;;;;;;1999.90;999.90;;;4.40;99.90;;;;;;5072725;28;20233;-75
2022/01/31 04:06:40;;;;;;;1999.90;999.90;;;4.40;99.90;;;;;;5073007;28;20240;-74
2022/01/31 04:09:05;;;;;;;1999.90;999.90;;;4.50;99.90;;;;;;5073060;28;20179;-73
2022/01/31 04:11:31;;;;;;;1999.90;999.90;;;4.50;99.90;;;;;;5072818;28;20194;-73
2022/01/31 04:13:57;;;;;;;1999.90;999.90;;;4.50;99.90;;;;;;5072626;28;20449;-74
2022/01/31 04:16:23;;;;;;;1999.90;999.90;;;4.60;99.90;;;;;;5072609;28;20405;-74
2022/01/31 04:18:48;;;;;;;1999.90;999.90;;;4.60;99.90;;;;;;5072704;28;20159;-74
2022/01/31 04:21:14;;;;;;;1999.90;999.90;;;4.70;99.90;;;;;;5072623;28;20163;-74
2022/01/31 04:23:40;;;;;;;1999.90;999.90;;;4.70;99.90;;;;;;5072551;28;20214;-72
2022/01/31 04:26:10;;;;;;;1999.90;999.90;;;4.80;99.90;;;;;;5072324;28;20170;-73
2022/01/31 04:28:45;;;;;;;1999.90;999.90;;;4.80;99.90;;;;;;5072598;28;20220;-74
2022/01/31 04:33:51;;;;;;;1999.90;999.90;;;4.80;99.90;;;;;;5072339;28;20540;-74
2022/01/31 04:36:18;;;;;;;1999.90;999.90;;;4.90;99.90;;;;;;5072102;28;20167;-74
2022/01/31 04:38:46;;;;;;;1999.90;999.90;;;5.00;99.90;;;;;;5072467;28;20541;-74
2022/01/31 04:41:12;;;;;;;1999.90;999.90;;;5.00;99.90;;;;;;5072309;28;20806;-74
2022/01/31 04:43:38;;;;;;;1999.90;999.90;;;5.10;99.90;;;;;;5072195;28;20191;-74
2022/01/31 04:46:06;;;;;;;1999.90;999.90;;;5.10;99.90;;;;;;5071976;28;21103;-74
2022/01/31 04:48:33;;;;;;;1999.90;999.90;;;5.20;99.90;;;;;;5072268;28;20397;-74
2022/01/31 04:50:59;;;;;;;1999.90;999.90;;;5.20;99.90;;;;;;5072044;28;20397;-74
2022/01/31 04:53:26;;;;;;;1999.90;999.90;;;5.30;99.90;;;;;;5072098;28;20982;-74
2022/01/31 04:55:52;;;;;;;1999.90;999.90;;;5.40;99.90;;;;;;5071830;28;20397;-74
2022/01/31 04:58:21;;;;;;;1999.90;999.90;;;5.40;99.90;;;;;;5072074;28;20862;-74
2022/01/31 05:00:48;;;;;;;1999.90;999.90;;;5.50;99.90;;;;;;5072046;28;20405;-74
2022/01/31 05:03:16;;;;;;;1999.90;999.90;;;5.60;99.90;;;;;;5072026;28;20470;-74
2022/01/31 05:05:42;;;;;;;1999.90;999.90;;;5.60;99.90;;;;;;5071893;28;20965;-74
2022/01/31 05:08:09;;;;;;;1999.90;999.90;;;5.60;99.90;;;;;;5071558;28;20855;-74
2022/01/31 05:10:35;;;;;;;1999.90;999.90;;;5.60;99.90;;;;;;5072009;28;20417;-74
2022/01/31 05:13:01;;;;;;;1999.90;999.90;;;5.70;99.90;;;;;;5071797;28;21054;-74
2022/01/31 05:15:27;;;;;;;1999.90;999.90;;;5.80;99.90;;;;;;5071584;28;20401;-74
2022/01/31 05:17:53;;;;;;;1999.90;999.90;;;5.80;99.90;;;;;;5071850;28;20921;-74
2022/01/31 05:20:18;;;;;;;1999.90;999.90;;;5.70;99.90;;;;;;5071864;28;20171;-74
2022/01/31 05:22:44;;;;;;;1999.90;999.90;;;5.70;99.90;;;;;;5071809;28;20274;-74
2022/01/31 05:25:10;;;;;;;1999.90;999.90;;;5.70;99.90;;;;;;5053653;28;20170;-73
2022/01/31 05:27:36;;;;;;;1999.90;999.90;;;5.70;99.90;;;;;;5071834;28;20244;-74
2022/01/31 05:30:03;;;;;;;1999.90;999.90;;;5.60;99.90;;;;;;5071730;28;20414;-74
2022/01/31 05:32:28;;;;;;;1999.90;999.90;;;5.70;99.90;;;;;;5071457;28;20259;-73
2022/01/31 05:34:54;;;;;;;1999.90;999.90;;;5.70;99.90;;;;;;5071398;28;20491;-73
2022/01/31 05:37:19;;;;;;;1999.90;999.90;;;5.70;99.90;;;;;;5071735;28;20570;-73
2022/01/31 05:39:46;;;;;;;1999.90;999.90;;;5.70;99.90;;;;;;5071734;28;20159;-73
2022/01/31 05:42:12;;;;;;;1999.90;999.90;;;5.80;99.90;;;;;;5071536;28;20237;-74
2022/01/31 05:44:37;;;;;;;1999.90;999.90;;;5.80;99.90;;;;;;5071378;28;20412;-73
2022/01/31 05:47:03;;;;;;;1999.90;999.90;;;5.90;99.90;;;;;;5071641;28;20193;-73
2022/01/31 05:49:29;;;;;;;1999.90;999.90;;;5.90;99.90;;;;;;5071823;28;20633;-73
2022/01/31 05:52:04;;;;;;;1999.90;999.90;;;5.90;99.90;;;;;;5071407;28;20449;-73
2022/01/31 05:54:31;;;;;;;1999.90;999.90;;;5.90;99.90;;;;;;5071361;28;20166;-73
2022/01/31 05:56:58;;;;;;;1999.90;999.90;;;5.90;99.90;;;;;;5071427;28;20398;-73
2022/01/31 05:59:24;;;;;;;1999.90;999.90;;;5.90;99.90;;;;;;5053503;28;20845;-73
2022/01/31 06:01:51;;;;;;;1999.90;999.90;;;5.90;99.90;;;;;;5071491;28;20401;-73
2022/01/31 06:04:16;;;;;;;1999.90;999.90;;;6.00;99.90;;;;;;5071101;28;20478;-73
2022/01/31 06:06:42;;;;;;;1999.90;999.90;;;6.00;99.90;;;;;;5071444;28;20405;-73
2022/01/31 06:09:07;;;;;;;1999.90;999.90;;;6.00;99.90;;;;;;5071400;28;20253;-73
2022/01/31 06:11:34;;;;;;;1999.90;999.90;;;6.00;99.90;;;;;;5071328;28;20198;-73
2022/01/31 06:14:03;;;;;;;1999.90;999.90;;;6.00;99.90;;;;;;5071115;28;20187;-73
2022/01/31 06:16:29;;;;;;;1999.90;999.90;;;6.10;99.90;;;;;;5071305;28;20451;-73
2022/01/31 06:18:56;;;;;;;1999.90;999.90;;;6.10;99.90;;;;;;5071291;28;20466;-73
2022/01/31 06:21:22;;;;;;;1999.90;999.90;;;6.10;99.90;;;;;;5074910;28;20409;-72
2022/01/31 06:23:47;;;;;;;1999.90;999.90;;;6.10;99.90;;;;;;5074875;28;20417;-72
2022/01/31 06:26:13;;;;;;;1999.90;999.90;;;6.20;99.90;;;;;;5074549;28;20409;-73
2022/01/31 06:28:39;;;;;;;1999.90;999.90;;;6.10;99.90;;;;;;5074837;28;20159;-72
2022/01/31 06:31:04;;;;;;;1999.90;999.90;;;6.20;99.90;;;;;;5074799;28;20218;-73
2022/01/31 06:33:30;;;;;;;1999.90;999.90;;;6.20;99.90;;;;;;5074965;28;20719;-72
2022/01/31 06:35:56;;;;;;;1999.90;999.90;;;6.20;99.90;;;;;;5074464;28;20194;-72
2022/01/31 06:38:22;;;;;;;1999.90;999.90;;;6.10;99.90;;;;;;5074700;28;20188;-72
2022/01/31 06:40:48;;;;;;;1999.90;999.90;;;6.10;99.90;;;;;;5074660;28;20225;-72
2022/01/31 06:43:15;;;;;;;1999.90;999.90;;;6.10;99.90;;;;;;5074492;28;20435;-72
2022/01/31 06:45:41;;;;;;;1999.90;999.90;;;6.10;99.90;;;;;;5074289;28;20412;-72
2022/01/31 06:48:07;;;;;;;1999.90;999.90;;;6.00;99.90;;;;;;5074461;28;20471;-72
2022/01/31 06:50:33;;;;;;;1999.90;999.90;;;6.00;99.90;;;;;;5074450;28;20404;-72
2022/01/31 06:53:01;;;;;;;1999.90;999.90;;;6.00;99.90;;;;;;5074213;28;20488;-72
2022/01/31 06:55:28;;;;;;;1999.90;999.90;;;6.00;99.90;;;;;;5074072;28;20920;-72
2022/01/31 06:57:54;;;;;;;1999.90;999.90;;;6.00;99.90;;;;;;5074307;28;20484;-72
2022/01/31 07:00:21;;;;;;;1999.90;999.90;;;5.90;99.90;;;;;;5074217;28;20914;-72
2022/01/31 07:02:49;;;;;;;1999.90;999.90;;;5.80;99.90;;;;;;5074164;28;20183;-72
2022/01/31 07:05:15;;;;;;;1999.90;999.90;;;5.60;99.90;;;;;;5073861;28;20767;-73
2022/01/31 07:07:41;;;;;;;1999.90;999.90;;;5.50;99.90;;;;;;5074151;28;20791;-72
2022/01/31 07:10:08;;;;;;;1999.90;999.90;;;5.40;99.90;;;;;;5074115;28;20508;-73
2022/01/31 07:12:37;;;;;;;1999.90;999.90;;;5.30;99.90;;;;;;5073842;28;21012;-73
2022/01/31 07:15:05;;;;;;;1999.90;999.90;;;5.30;99.90;;;;;;5073676;28;20773;-73
2022/01/31 07:17:31;;;;;;;1999.90;999.90;;;5.20;99.90;;;;;;5073908;28;20189;-73
2022/01/31 07:19:57;;;;;;;1999.90;999.90;;;5.20;99.90;;;;;;5073871;28;20458;-73
2022/01/31 07:22:30;;;;;;;1999.90;999.90;;;5.10;99.90;;;;;;5073705;28;20672;-73
2022/01/31 07:25:02;;;;;;;1999.90;999.90;;;5.10;99.90;;;;;;5073535;28;20175;-73
2022/01/31 07:27:29;;;;;;;1999.90;999.90;;;5.00;99.90;;;;;;5073765;28;20410;-73
2022/01/31 07:29:54;;;;;;;1999.90;999.90;;;5.00;99.90;;;;;;5073489;28;20273;-73
2022/01/31 07:32:20;;;;;;;1999.90;999.90;;;4.90;99.90;;;;;;5073222;28;20489;-74
2022/01/31 07:34:46;;;;;;;1999.90;999.90;;;4.90;99.90;;;;;;5055369;28;20171;-72
2022/01/31 07:37:12;;;;;;;1999.90;999.90;;;5.00;99.90;;;;;;5073567;28;20161;-73
2022/01/31 07:39:43;;;;;;;1999.90;999.90;;;5.00;99.90;;;;;;5073526;28;20406;-73
2022/01/31 07:42:09;;;;;;;1999.90;999.90;;;5.00;99.90;;;;;;5073399;28;20189;-73
2022/01/31 07:44:35;;;;;;;1999.90;999.90;;;5.00;99.90;;;;;;5073106;28;20508;-74
2022/01/31 07:47:01;;;;;;;1999.90;999.90;;;4.90;99.90;;;;;;5073324;28;20856;-74
2022/01/31 07:49:27;;;;;;;1999.90;999.90;;;5.00;99.90;;;;;;5073313;28;20205;-74
2022/01/31 07:51:54;;;;;;;1999.90;999.90;;;5.00;99.90;;;;;;5073137;28;20865;-74
2022/01/31 07:54:20;;;;;;;1999.90;999.90;;;5.00;99.90;;;;;;5072903;28;20253;-74
2022/01/31 07:56:46;;;;;;;1999.90;999.90;;;5.00;99.90;;;;;;5073218;28;20393;-74
2022/01/31 07:59:11;;;;;;;1999.90;999.90;;;5.00;99.90;;;;;;5073116;28;20758;-74
2022/01/31 08:01:37;;;;;;;1999.90;999.90;;;5.10;99.90;;;;;;5073093;28;20219;-74
2022/01/31 08:04:03;;;;;;;1999.90;999.90;;;5.20;99.90;;;;;;5072647;28;20191;-74
2022/01/31 08:06:29;;;;;;;1999.90;999.90;;;5.20;99.90;;;;;;5072998;28;20167;-74
2022/01/31 08:08:54;;;;;;;1999.90;999.90;;;5.20;99.90;;;;;;5072972;28;20406;-74
2022/01/31 08:11:22;;;;;;;1999.90;999.90;;;5.30;99.90;;;;;;5072942;28;20174;-74
2022/01/31 08:13:54;;;;;;;1999.90;999.90;;;5.30;99.90;;;;;;5072823;28;20188;-74
2022/01/31 08:16:20;;;;;;;1999.90;999.90;;;5.30;99.90;;;;;;5072500;28;20443;-74
2022/01/31 08:18:46;;;;;;;1999.90;999.90;;;5.30;99.90;;;;;;5072706;28;20409;-73
2022/01/31 08:21:13;;;;;;;1999.90;999.90;;;5.30;99.90;;;;;;5072713;28;20405;-74
2022/01/31 08:23:41;;;;;;;1999.90;999.90;;;5.30;99.90;;;;;;5072636;28;20274;-74
2022/01/31 08:26:12;;;;;;;1999.90;999.90;;;5.20;99.90;;;;;;5072363;28;20405;-74
2022/01/31 08:28:42;;;;;;;1999.90;999.90;;;5.10;99.90;;;;;;5072601;28;20515;-74
2022/01/31 08:33:46;;;;;;;1999.90;999.90;;;5.00;99.90;;;;;;5072292;28;20460;-74
2022/01/31 08:36:12;;;;;;;1999.90;999.90;;;5.00;99.90;;;;;;5072338;28;20401;-74
2022/01/31 08:38:41;;;;;;;1999.90;999.90;;;5.00;99.90;;;;;;5072437;28;20163;-74
2022/01/31 08:41:08;;;;;;;1999.90;999.90;;;5.00;99.90;;;;;;5072630;28;20405;-74
2022/01/31 08:43:35;;;;;;;1999.90;999.90;;;5.00;99.90;;;;;;5071518;28;20576;-74
2022/01/31 08:46:02;;;;;;;1999.90;999.90;;;5.00;99.90;;;;;;5054136;28;20413;-74
2022/01/31 08:48:28;;;;;;;1999.90;999.90;;;5.10;99.90;;;;;;5072348;28;20405;-74
2022/01/31 08:50:55;;;;;;;1999.90;999.90;;;5.00;99.90;;;;;;5072352;28;20179;-74
2022/01/31 08:53:21;;;;;;;1999.90;999.90;;;5.10;99.90;;;;;;5071978;28;21013;-74
2022/01/31 08:55:53;;;;;;;1999.90;999.90;;;5.00;99.90;;;;;;5072038;28;20487;-74
2022/01/31 08:58:19;;;;;;;1999.90;999.90;;;5.10;99.90;;;;;;5072177;28;20409;-74
2022/01/31 09:00:49;;;;;;;1999.90;999.90;;;5.00;99.90;;;;;;5072217;28;20409;-74
2022/01/31 09:05:42;;;;;;;1999.90;999.90;;;5.10;99.90;;;;;;5071706;28;20421;-75
2022/01/31 09:08:07;;;;;;;1999.90;999.90;;;4.80;99.90;;;;;;5072045;28;20174;-75
2022/01/31 09:10:34;;;;;;;1999.90;999.90;;;4.80;99.90;;;;;;5071961;28;20163;-75
2022/01/31 09:13:00;;;;;;;1999.90;999.90;;;4.70;99.90;;;;;;5071733;28;20213;-75
2022/01/31 09:15:25;;;;;;;1999.90;999.90;;;4.70;99.90;;;;;;5071602;28;20622;-76
2022/01/31 09:17:51;;;;;;;1999.90;999.90;;;4.70;99.90;;;;;;5071959;28;20155;-75
2022/01/31 09:20:17;;;;;;;1999.90;999.90;;;4.60;99.90;;;;;;5071842;28;20588;-76
2022/01/31 09:22:43;;;;;;;1999.90;999.90;;;4.60;99.90;;;;;;5071708;28;20187;-76
2022/01/31 09:25:10;;;;;;;1999.90;999.90;;;4.60;99.90;;;;;;5071473;28;20248;-76
2022/01/31 09:27:36;;;;;;;1999.90;999.90;;;4.60;99.90;;;;;;5071848;28;20397;-77
2022/01/31 09:30:07;;;;;;;1999.90;999.90;;;4.60;99.90;;;;;;5071872;28;20538;-77
2022/01/31 09:32:33;;;;;;;1999.90;999.90;;;4.60;99.90;;;;;;5071751;28;20484;-77
2022/01/31 09:34:59;;;;;;;1999.90;999.90;;;4.60;99.90;;;;;;5071556;28;20957;-75
2022/01/31 09:37:25;;;;;;;1999.90;999.90;;;4.60;99.90;;;;;;5071749;28;20236;-76
2022/01/31 09:39:51;;;;;;;1999.90;999.90;;;4.60;99.90;;;;;;5071771;28;20393;-77
2022/01/31 09:42:32;;;;;;;1999.90;999.90;;;4.60;99.90;;;;;;5071606;28;20209;-77
2022/01/31 09:45:12;;;;;;;1999.90;999.90;;;4.60;99.90;;;;;;5071377;28;20397;-76
2022/01/31 09:50:22;;;;;;;1999.90;999.90;;;4.60;99.90;;;;;;5071609;28;20913;-76
2022/01/31 09:52:48;;;;;;;1999.90;999.90;;;4.60;99.90;;;;;;5071474;28;20207;-76
2022/01/31 09:55:14;;;;;;;1999.90;999.90;;;4.60;99.90;;;;;;5074939;28;20478;-76
2022/01/31 09:57:40;;;;;;;1999.90;999.90;;;4.60;99.90;;;;;;5075600;28;20167;-76
2022/01/31 10:00:07;;;;;;;1999.90;999.90;;;4.60;99.90;;;;;;5075642;28;20454;-77
2022/01/31 10:02:33;;;;;;;1999.90;999.90;;;4.60;99.90;;;;;;5058682;28;20539;-77
2022/01/31 10:04:58;;;;;;;1999.90;999.90;;;4.60;99.90;;;;;;5077651;28;20459;-77
2022/01/31 10:07:46;;;;;;;1999.90;999.90;;;4.60;99.90;;;;;;5078278;28;20511;-77
2022/01/31 10:10:22;;;;;;;1999.90;999.90;;;4.50;99.90;;;;;;5058878;28;20181;-78
2022/01/31 10:18:08;;;;;;;1999.90;999.90;;;4.50;99.90;;;;;;5080859;28;20173;-77
2022/01/31 10:20:36;;;;;;;1999.90;999.90;;;4.50;99.90;;;;;;5081527;28;20163;-78
2022/01/31 10:23:15;;;;;;;1999.90;999.90;;;4.50;99.90;;;;;;5081251;28;20205;-77
2022/01/31 10:25:42;;;;;;;1999.90;999.90;;;4.50;99.90;;;;;;5085102;28;20405;-77
2022/01/31 10:28:11;;;;;;;1999.90;999.90;;;4.50;99.90;;;;;;5071529;28;20640;-78
2022/01/31 10:30:37;;;;;;;1999.90;999.90;;;4.50;99.90;;;;;;5070512;28;20860;-78
2022/01/31 10:33:07;;;;;;;1999.90;999.90;;;4.50;99.90;;;;;;5041988;28;20622;-81
2022/01/31 10:35:33;;;;;;;1999.90;999.90;;;4.60;99.90;;;;;;5058525;28;20391;-78
2022/01/31 10:38:04;;;;;;;1999.90;999.90;;;4.60;99.90;;;;;;5039226;28;20731;-81
2022/01/31 10:53:50;;;;;;;1999.90;999.90;;;4.70;99.90;;;;;;5079235;28;20278;-81
2022/01/31 10:56:16;;;;;;;1999.90;999.90;;;4.70;99.90;;;;;;5069768;28;20488;-81
2022/01/31 10:59:32;;;;;;;1999.90;999.90;;;4.70;99.90;;;;;;5083926;28;20879;-80
2022/01/31 11:02:43;;;;;;;1999.90;999.90;;;4.70;99.90;;;;;;5083063;28;20402;-82
2022/01/31 11:05:22;;;;;;;1999.90;999.90;;;4.70;99.90;;;;;;5054387;28;20227;-81
2022/01/31 11:07:48;;;;;;;1999.90;999.90;;;4.60;99.90;;;;;;5043047;28;20470;-81
2022/01/31 11:10:17;;;;;;;1999.90;999.90;;;4.60;99.90;;;;;;5056554;28;20418;-80
2022/01/31 11:12:43;;;;;;;1999.90;999.90;;;4.60;99.90;;;;;;5063909;28;20215;-81
2022/01/31 11:15:09;;;;;;;1999.90;999.90;;;4.60;99.90;;;;;;5045709;28;20407;-79
2022/01/31 11:17:35;;;;;;;1999.90;999.90;;;4.60;99.90;;;;;;5047125;28;20425;-79
2022/01/31 11:20:02;;;;;;;1999.90;999.90;;;4.70;99.90;;;;;;5058347;28;20164;-78
2022/01/31 11:22:36;;;;;;;1999.90;999.90;;;4.70;99.90;;;;;;5038793;28;20438;-78
2022/01/31 11:25:08;;;;;;;1999.90;999.90;;;4.70;99.90;;;;;;5041476;28;20468;-77
2022/01/31 11:27:38;;;;;;;1999.90;999.90;;;4.70;99.90;;;;;;5069312;28;20421;-79
2022/01/31 11:30:06;;;;;;;1999.90;999.90;;;4.70;99.90;;;;;;5062676;28;20178;-80
2022/01/31 11:32:32;;;;;;;1999.90;999.90;;;4.70;99.90;;;;;;5079547;28;20467;-77
2022/01/31 11:34:57;;;;;;;1999.90;999.90;;;4.70;99.90;;;;;;5057182;28;20243;-77
2022/01/31 11:37:27;;;;;;;1999.90;999.90;;;4.70;99.90;;;;;;5074408;28;20401;-78
2022/01/31 11:40:00;;;;;;;1999.90;999.90;;;4.70;99.90;;;;;;5075433;28;20227;-77
2022/01/31 11:42:26;;;;;;;1999.90;999.90;;;4.70;99.90;;;;;;5073580;28;20203;-77
2022/01/31 11:44:54;;;;;;;1999.90;999.90;;;4.70;99.90;;;;;;5072652;28;20470;-77
2022/01/31 11:47:23;;;;;;;1999.90;999.90;;;4.80;99.90;;;;;;5073214;28;20420;-77
2022/01/31 11:50:01;;;;;;;1999.90;999.90;;;4.80;99.90;;;;;;5073103;28;20409;-76
2022/01/31 11:52:32;;;;;;;1999.90;999.90;;;4.80;99.90;;;;;;5072457;28;20206;-76
2022/01/31 11:55:02;;;;;;;1999.90;999.90;;;4.80;99.90;;;;;;5072627;28;20191;-76
2022/01/31 11:57:30;;;;;;;1999.90;999.90;;;4.80;99.90;;;;;;5072784;28;20444;-76
2022/01/31 11:59:59;;;;;;;1999.90;999.90;;;4.80;99.90;;;;;;5072021;28;20998;-76
2022/01/31 12:02:29;;;;;;;1999.90;999.90;;;4.80;99.90;;;;;;5045202;28;20221;-76
2022/01/31 12:04:59;;;;;;;1999.90;999.90;;;4.80;99.90;;;;;;5052514;28;20188;-77
2022/01/31 12:07:32;;;;;;;1999.90;999.90;;;4.80;99.90;;;;;;5052207;28;20777;-76
2022/01/31 12:10:00;;;;;;;1999.90;999.90;;;4.80;99.90;;;;;;5052381;28;20474;-76
2022/01/31 12:12:42;;;;;;;1999.90;999.90;;;4.80;99.90;;;;;;5052224;28;20207;-77
2022/01/31 12:19:31;;;;;;;1999.90;999.90;;;4.80;99.90;;;;;;5051674;28;20183;-76
2022/01/31 12:24:44;;;;;;;1999.90;999.90;;;4.70;99.90;;;;;;5052112;28;20199;-76
2022/01/31 12:27:13;;;;;;;1999.90;999.90;;;4.80;99.90;;;;;;5049294;28;20485;-76
2022/01/31 12:29:43;;;;;;;1999.90;999.90;;;4.70;99.90;;;;;;5052030;28;20567;-76
2022/01/31 12:34:39;;;;;;;1999.90;999.90;;;4.70;99.90;;;;;;5081800;23;20509;-78
2022/01/31 12:37:15;;;;;;;1999.90;999.90;;;4.70;99.90;;;;;;5048198;28;20179;-79
2022/01/31 12:39:43;;;;;;;1999.90;999.90;;;4.60;99.90;;;;;;5040215;28;20437;-77
2022/01/31 12:42:54;;;;;;;1999.90;999.90;;;4.60;99.90;;;;;;5048173;28;20198;-77
2022/01/31 12:45:34;;;;;;;1999.90;999.90;;;4.60;99.90;;;;;;5031492;28;20177;-78
2022/01/31 12:48:06;;;;;;;1999.90;999.90;;;4.60;99.90;;;;;;5023318;28;20184;-79
2022/01/31 12:50:37;;;;;;;1999.90;999.90;;;4.50;99.90;;;;;;5026675;28;20218;-79
2022/01/31 12:53:06;;;;;;;1999.90;999.90;;;4.80;99.90;;;;;;5029937;28;21026;-77